Terminal Aerodrome Forecast
Issued by NWS

Home | Current Version | Previous Version | Text Only | Print | Product List | Glossary On
Versions: 1 2 3 4 5 6 7 8 9 10 11 12 13 14 15
005
FTPA31 PHFO 271735
TAFHTO
TAF
PHTO 271735Z 2718/2818 25005KT P6SM VCSH SCT030 BKN045 BKN100
     FM272000 03011KT P6SM VCSH SCT030 BKN045 BKN100
     FM280400 VRB05KT P6SM -SHRA BKN030 OVC045
     FM280800 24008KT P6SM VCSH SCT030 BKN045 BKN100=

USA.gov is the U.S. government's official web portal to all federal, state and local government web resources and services.